sensor_id;sensor_type;location;lat;lon;timestamp;pressure;altitude;pressure_sealevel;temperature;humidity
77171;BME280;66144;50.020;14.422;2023-02-18T00:01:27;99100.72;;;11.49;79.53
77171;BME280;66144;50.020;14.422;2023-02-18T00:03:54;99110.00;;;11.39;80.13
77171;BME280;66144;50.020;14.422;2023-02-18T00:06:26;99104.31;;;11.42;79.65
77171;BME280;66144;50.020;14.422;2023-02-18T00:08:52;99104.47;;;11.36;79.77
77171;BME280;66144;50.020;14.422;2023-02-18T00:11:19;99111.28;;;11.37;79.81
77171;BME280;66144;50.020;14.422;2023-02-18T00:13:50;99107.22;;;11.24;80.46
77171;BME280;66144;50.020;14.422;2023-02-18T00:16:16;99108.78;;;11.25;80.29
77171;BME280;66144;50.020;14.422;2023-02-18T00:18:41;99109.97;;;11.18;80.55
77171;BME280;66144;50.020;14.422;2023-02-18T00:21:07;99103.69;;;11.14;80.53
77171;BME280;66144;50.020;14.422;2023-02-18T00:23:33;99121.66;;;11.10;80.58
77171;BME280;66144;50.020;14.422;2023-02-18T00:26:02;99114.06;;;11.08;80.58
77171;BME280;66144;50.020;14.422;2023-02-18T00:28:28;99120.72;;;10.99;80.75
77171;BME280;66144;50.020;14.422;2023-02-18T00:30:53;99120.16;;;10.97;80.95
77171;BME280;66144;50.020;14.422;2023-02-18T00:33:19;99125.38;;;10.97;80.80
77171;BME280;66144;50.020;14.422;2023-02-18T00:35:45;99120.16;;;10.97;80.80
77171;BME280;66144;50.020;14.422;2023-02-18T00:38:10;99124.22;;;10.88;81.21
77171;BME280;66144;50.020;14.422;2023-02-18T00:40:39;99131.25;;;10.88;81.73
77171;BME280;66144;50.020;14.422;2023-02-18T00:43:06;99134.19;;;10.91;80.98
77171;BME280;66144;50.020;14.422;2023-02-18T00:45:31;99131.03;;;10.89;80.48
77171;BME280;66144;50.020;14.422;2023-02-18T00:47:57;99130.00;;;10.90;80.63
77171;BME280;66144;50.020;14.422;2023-02-18T00:50:22;99130.72;;;10.86;80.69
77171;BME280;66144;50.020;14.422;2023-02-18T00:52:48;99128.34;;;10.84;80.48
77171;BME280;66144;50.020;14.422;2023-02-18T00:55:13;99131.75;;;10.85;80.44
77171;BME280;66144;50.020;14.422;2023-02-18T00:57:38;99136.09;;;10.79;81.10
77171;BME280;66144;50.020;14.422;2023-02-18T01:00:05;99129.28;;;10.78;80.41
77171;BME280;66144;50.020;14.422;2023-02-18T01:02:31;99135.28;;;10.79;80.65
77171;BME280;66144;50.020;14.422;2023-02-18T01:04:56;99138.63;;;10.74;80.73
77171;BME280;66144;50.020;14.422;2023-02-18T01:07:22;99127.16;;;10.75;80.48
77171;BME280;66144;50.020;14.422;2023-02-18T01:09:47;99127.63;;;10.72;80.40
77171;BME280;66144;50.020;14.422;2023-02-18T01:12:13;99122.16;;;10.73;80.04
77171;BME280;66144;50.020;14.422;2023-02-18T01:14:38;99124.31;;;10.77;79.42
77171;BME280;66144;50.020;14.422;2023-02-18T01:17:04;99121.28;;;10.68;79.20
77171;BME280;66144;50.020;14.422;2023-02-18T01:19:29;99115.34;;;10.72;78.77
77171;BME280;66144;50.020;14.422;2023-02-18T01:21:54;99125.50;;;10.69;78.53
77171;BME280;66144;50.020;14.422;2023-02-18T01:24:20;99124.47;;;10.70;78.14
77171;BME280;66144;50.020;14.422;2023-02-18T01:26:45;99115.59;;;10.71;77.74
77171;BME280;66144;50.020;14.422;2023-02-18T01:29:10;99119.25;;;10.70;77.36
77171;BME280;66144;50.020;14.422;2023-02-18T01:31:36;99119.25;;;10.70;77.54
77171;BME280;66144;50.020;14.422;2023-02-18T01:34:01;99106.41;;;10.68;77.56
77171;BME280;66144;50.020;14.422;2023-02-18T01:36:27;99128.91;;;10.69;76.25
77171;BME280;66144;50.020;14.422;2023-02-18T01:38:52;99128.41;;;10.72;76.13
77171;BME280;66144;50.020;14.422;2023-02-18T01:41:18;99126.94;;;10.77;76.25
77171;BME280;66144;50.020;14.422;2023-02-18T01:43:43;99132.63;;;10.73;75.93
77171;BME280;66144;50.020;14.422;2023-02-18T01:46:20;99131.81;;;10.73;76.54
77171;BME280;66144;50.020;14.422;2023-02-18T01:48:56;99131.50;;;10.69;75.74
77171;BME280;66144;50.020;14.422;2023-02-18T01:51:26;99127.31;;;10.68;75.00
77171;BME280;66144;50.020;14.422;2023-02-18T01:56:34;99135.94;;;10.69;74.41
77171;BME280;66144;50.020;14.422;2023-02-18T01:59:04;99131.81;;;10.73;74.29
77171;BME280;66144;50.020;14.422;2023-02-18T02:01:32;99128.75;;;10.76;74.22
77171;BME280;66144;50.020;14.422;2023-02-18T02:03:58;99135.28;;;10.79;73.48
77171;BME280;66144;50.020;14.422;2023-02-18T02:06:24;99130.06;;;10.79;73.16
77171;BME280;66144;50.020;14.422;2023-02-18T02:08:54;99138.22;;;10.82;72.67
77171;BME280;66144;50.020;14.422;2023-02-18T02:14:21;99123.91;;;10.85;72.34
77171;BME280;66144;50.020;14.422;2023-02-18T02:17:07;99108.53;;;10.88;72.13
77171;BME280;66144;50.020;14.422;2023-02-18T02:22:50;99125.81;;;10.89;71.62
77171;BME280;66144;50.020;14.422;2023-02-18T02:38:45;99098.56;;;10.85;71.43
77171;BME280;66144;50.020;14.422;2023-02-18T02:44:44;99099.03;;;10.82;70.87
77171;BME280;66144;50.020;14.422;2023-02-18T02:50:11;99097.91;;;10.78;71.23
77171;BME280;66144;50.020;14.422;2023-02-18T02:52:46;99100.06;;;10.81;71.18
77171;BME280;66144;50.020;14.422;2023-02-18T02:55:14;99095.63;;;10.82;71.15
77171;BME280;66144;50.020;14.422;2023-02-18T02:57:45;99092.69;;;10.78;71.22
77171;BME280;66144;50.020;14.422;2023-02-18T03:00:12;99096.41;;;10.82;71.77
77171;BME280;66144;50.020;14.422;2023-02-18T03:11:15;99107.09;;;10.81;71.48
77171;BME280;66144;50.020;14.422;2023-02-18T03:16:38;99116.94;;;10.73;71.96
77171;BME280;66144;50.020;14.422;2023-02-18T03:21:59;99121.16;;;10.75;72.31
77171;BME280;66144;50.020;14.422;2023-02-18T03:24:31;99118.53;;;10.75;72.52
77171;BME280;66144;50.020;14.422;2023-02-18T03:27:05;99117.75;;;10.74;72.59
77171;BME280;66144;50.020;14.422;2023-02-18T03:29:32;99117.97;;;10.72;72.28
77171;BME280;66144;50.020;14.422;2023-02-18T03:32:02;99108.00;;;10.69;72.43
77171;BME280;66144;50.020;14.422;2023-02-18T03:34:31;99109.81;;;10.69;72.44
77171;BME280;66144;50.020;14.422;2023-02-18T03:36:58;99112.09;;;10.65;72.87
77171;BME280;66144;50.020;14.422;2023-02-18T03:39:26;99108.69;;;10.65;72.66
77171;BME280;66144;50.020;14.422;2023-02-18T03:41:53;99107.66;;;10.66;72.77
77171;BME280;66144;50.020;14.422;2023-02-18T03:44:18;99108.69;;;10.65;72.38
77171;BME280;66144;50.020;14.422;2023-02-18T03:46:43;99110.28;;;10.66;72.91
77171;BME280;66144;50.020;14.422;2023-02-18T03:49:11;99105.06;;;10.66;72.96
77171;BME280;66144;50.020;14.422;2023-02-18T03:51:37;99106.00;;;10.60;73.02
77171;BME280;66144;50.020;14.422;2023-02-18T03:54:02;99115.41;;;10.61;72.97
77171;BME280;66144;50.020;14.422;2023-02-18T03:56:28;99108.94;;;10.63;73.15
77171;BME280;66144;50.020;14.422;2023-02-18T03:58:53;99115.97;;;10.63;73.31
77171;BME280;66144;50.020;14.422;2023-02-18T04:01:19;99116.44;;;10.60;73.18
77171;BME280;66144;50.020;14.422;2023-02-18T04:03:45;99109.63;;;10.59;73.24
77171;BME280;66144;50.020;14.422;2023-02-18T04:06:10;99112.25;;;10.59;73.19
77171;BME280;66144;50.020;14.422;2023-02-18T04:08:35;99118.81;;;10.61;73.50
77171;BME280;66144;50.020;14.422;2023-02-18T04:11:01;99113.94;;;10.65;73.08
77171;BME280;66144;50.020;14.422;2023-02-18T04:13:27;99116.31;;;10.66;72.99
77171;BME280;66144;50.020;14.422;2023-02-18T04:15:52;99106.78;;;10.60;72.98
77171;BME280;66144;50.020;14.422;2023-02-18T04:18:18;99105.53;;;10.63;72.57
77171;BME280;66144;50.020;14.422;2023-02-18T04:20:43;99105.53;;;10.63;72.50
77171;BME280;66144;50.020;14.422;2023-02-18T04:23:10;99104.97;;;10.61;72.74
77171;BME280;66144;50.020;14.422;2023-02-18T04:25:35;99102.44;;;10.66;72.20
77171;BME280;66144;50.020;14.422;2023-02-18T04:28:01;99095.41;;;10.66;71.97
77171;BME280;66144;50.020;14.422;2023-02-18T04:30:26;99107.19;;;10.69;71.70
77171;BME280;66144;50.020;14.422;2023-02-18T04:32:52;99093.13;;;10.70;71.08
77171;BME280;66144;50.020;14.422;2023-02-18T04:35:18;99103.56;;;10.70;71.02
77171;BME280;66144;50.020;14.422;2023-02-18T04:37:43;99103.09;;;10.73;70.82
77171;BME280;66144;50.020;14.422;2023-02-18T04:40:09;99098.97;;;10.77;71.03
77171;BME280;66144;50.020;14.422;2023-02-18T04:42:35;99095.31;;;10.78;70.81
77171;BME280;66144;50.020;14.422;2023-02-18T04:45:00;99092.22;;;10.81;70.58
77171;BME280;66144;50.020;14.422;2023-02-18T04:47:26;99098.72;;;10.79;70.72
77171;BME280;66144;50.020;14.422;2023-02-18T04:49:51;99090.16;;;10.83;70.28
77171;BME280;66144;50.020;14.422;2023-02-18T04:52:17;99101.41;;;10.84;70.12
77171;BME280;66144;50.020;14.422;2023-02-18T04:54:42;99105.53;;;10.80;70.17
77171;BME280;66144;50.020;14.422;2023-02-18T04:57:07;99107.44;;;10.84;70.30
77171;BME280;66144;50.020;14.422;2023-02-18T04:59:33;99112.66;;;10.84;70.04
77171;BME280;66144;50.020;14.422;2023-02-18T05:01:58;99114.22;;;10.85;70.02
77171;BME280;66144;50.020;14.422;2023-02-18T05:04:24;99112.97;;;10.88;69.93
77171;BME280;66144;50.020;14.422;2023-02-18T05:06:49;99111.94;;;10.89;69.86
77171;BME280;66144;50.020;14.422;2023-02-18T05:09:15;99114.09;;;10.92;69.57
77171;BME280;66144;50.020;14.422;2023-02-18T05:11:41;99116.13;;;10.90;69.79
77171;BME280;66144;50.020;14.422;2023-02-18T05:14:06;99116.38;;;10.88;69.63
77171;BME280;66144;50.020;14.422;2023-02-18T05:16:31;99113.53;;;10.90;70.09
77171;BME280;66144;50.020;14.422;2023-02-18T05:18:57;99112.19;;;10.87;69.76
77171;BME280;66144;50.020;14.422;2023-02-18T05:21:22;99106.16;;;10.87;69.75
77171;BME280;66144;50.020;14.422;2023-02-18T05:23:47;99110.34;;;10.88;69.70
77171;BME280;66144;50.020;14.422;2023-02-18T05:26:13;99113.75;;;10.88;69.89
77171;BME280;66144;50.020;14.422;2023-02-18T05:28:38;99117.09;;;10.84;69.63
77171;BME280;66144;50.020;14.422;2023-02-18T05:31:04;99119.69;;;10.84;69.96
77171;BME280;66144;50.020;14.422;2023-02-18T05:33:29;99113.69;;;10.83;69.97
77171;BME280;66144;50.020;14.422;2023-02-18T05:35:54;99102.19;;;10.84;70.11
77171;BME280;66144;50.020;14.422;2023-02-18T05:38:20;99108.78;;;10.87;70.07
77171;BME280;66144;50.020;14.422;2023-02-18T05:40:45;99110.34;;;10.88;70.03
77171;BME280;66144;50.020;14.422;2023-02-18T05:43:12;99114.56;;;10.89;70.02
77171;BME280;66144;50.020;14.422;2023-02-18T05:45:37;99110.03;;;10.84;69.96
77171;BME280;66144;50.020;14.422;2023-02-18T05:48:03;99097.44;;;10.81;69.70
77171;BME280;66144;50.020;14.422;2023-02-18T05:50:28;99095.38;;;10.83;69.72
77171;BME280;66144;50.020;14.422;2023-02-18T05:52:54;99094.91;;;10.86;69.80
77171;BME280;66144;50.020;14.422;2023-02-18T05:55:19;99094.38;;;10.84;69.54
77171;BME280;66144;50.020;14.422;2023-02-18T05:57:44;99101.72;;;10.87;69.11
77171;BME280;66144;50.020;14.422;2023-02-18T06:00:10;99094.44;;;10.89;68.97
77171;BME280;66144;50.020;14.422;2023-02-18T06:02:36;99098.31;;;10.87;69.20
77171;BME280;66144;50.020;14.422;2023-02-18T06:05:03;99095.56;;;10.93;69.50
77171;BME280;66144;50.020;14.422;2023-02-18T06:07:28;99089.78;;;10.91;68.88
77171;BME280;66144;50.020;14.422;2023-02-18T06:09:53;99088.19;;;10.90;69.01
77171;BME280;66144;50.020;14.422;2023-02-18T06:12:19;99085.09;;;10.93;68.69
77171;BME280;66144;50.020;14.422;2023-02-18T06:14:45;99081.47;;;10.94;68.69
77171;BME280;66144;50.020;14.422;2023-02-18T06:17:11;99080.44;;;10.95;68.52
77171;BME280;66144;50.020;14.422;2023-02-18T06:19:37;99077.81;;;10.95;68.61
77171;BME280;66144;50.020;14.422;2023-02-18T06:22:03;99086.97;;;10.98;68.85
77171;BME280;66144;50.020;14.422;2023-02-18T06:24:28;99093.19;;;10.92;68.43
77171;BME280;66144;50.020;14.422;2023-02-18T06:26:54;99086.19;;;10.97;68.73
77171;BME280;66144;50.020;14.422;2023-02-18T06:29:19;99094.03;;;10.97;68.47
77171;BME280;66144;50.020;14.422;2023-02-18T06:31:44;99090.38;;;10.98;68.44
77171;BME280;66144;50.020;14.422;2023-02-18T06:34:10;99093.00;;;10.98;68.57
77171;BME280;66144;50.020;14.422;2023-02-18T06:36:35;99085.16;;;10.98;68.34
77171;BME280;66144;50.020;14.422;2023-02-18T06:39:02;99088.56;;;10.99;68.11
77171;BME280;66144;50.020;14.422;2023-02-18T06:41:28;99084.13;;;10.99;68.34
77171;BME280;66144;50.020;14.422;2023-02-18T06:43:53;99087.84;;;11.03;68.14
77171;BME280;66144;50.020;14.422;2023-02-18T06:46:18;99086.81;;;11.04;67.59
77171;BME280;66144;50.020;14.422;2023-02-18T06:48:44;99077.16;;;11.05;67.53
77171;BME280;66144;50.020;14.422;2023-02-18T06:51:09;99078.41;;;11.02;68.02
77171;BME280;66144;50.020;14.422;2023-02-18T06:53:35;99086.03;;;11.04;67.68
77171;BME280;66144;50.020;14.422;2023-02-18T06:56:00;99078.72;;;11.06;67.38
77171;BME280;66144;50.020;14.422;2023-02-18T06:58:25;99075.41;;;11.11;67.36
77171;BME280;66144;50.020;14.422;2023-02-18T07:00:51;99074.13;;;11.13;67.04
77171;BME280;66144;50.020;14.422;2023-02-18T07:03:16;99077.34;;;11.20;67.06
77171;BME280;66144;50.020;14.422;2023-02-18T07:05:42;99081.31;;;11.23;67.49
77171;BME280;66144;50.020;14.422;2023-02-18T07:08:08;99076.63;;;11.25;67.09
77171;BME280;66144;50.020;14.422;2023-02-18T07:10:33;99073.22;;;11.24;67.13
77171;BME280;66144;50.020;14.422;2023-02-18T07:12:59;99071.47;;;11.30;67.70
77171;BME280;66144;50.020;14.422;2023-02-18T07:15:24;99069.09;;;11.28;67.58
77171;BME280;66144;50.020;14.422;2023-02-18T07:17:52;99061.78;;;11.30;67.95
77171;BME280;66144;50.020;14.422;2023-02-18T07:20:19;99056.31;;;11.32;67.60
77171;BME280;66144;50.020;14.422;2023-02-18T07:22:45;99044.03;;;11.32;67.97
77171;BME280;66144;50.020;14.422;2023-02-18T07:25:11;99037.22;;;11.31;67.43
77171;BME280;66144;50.020;14.422;2023-02-18T07:27:36;99041.72;;;11.36;67.89
77171;BME280;66144;50.020;14.422;2023-02-18T07:30:02;99039.41;;;11.39;67.55
77171;BME280;66144;50.020;14.422;2023-02-18T07:32:27;99041.84;;;11.46;67.79
77171;BME280;66144;50.020;14.422;2023-02-18T07:34:53;99026.38;;;11.45;67.49
77171;BME280;66144;50.020;14.422;2023-02-18T07:37:19;99018.53;;;11.45;67.89
77171;BME280;66144;50.020;14.422;2023-02-18T07:39:44;99022.00;;;11.50;67.67
77171;BME280;66144;50.020;14.422;2023-02-18T07:42:10;99023.63;;;11.56;67.34
77171;BME280;66144;50.020;14.422;2023-02-18T07:44:36;99015.28;;;11.59;67.33
77171;BME280;66144;50.020;14.422;2023-02-18T07:47:03;99012.13;;;11.57;67.13
77171;BME280;66144;50.020;14.422;2023-02-18T07:49:30;99024.72;;;11.60;66.97
77171;BME280;66144;50.020;14.422;2023-02-18T07:51:55;99020.59;;;11.64;66.86
77171;BME280;66144;50.020;14.422;2023-02-18T07:54:21;99033.75;;;11.74;66.82
77171;BME280;66144;50.020;14.422;2023-02-18T07:56:46;99032.81;;;11.81;66.89
77171;BME280;66144;50.020;14.422;2023-02-18T07:59:12;99042.00;;;11.83;66.59
77171;BME280;66144;50.020;14.422;2023-02-18T08:01:39;99042.59;;;11.90;66.45
77171;BME280;66144;50.020;14.422;2023-02-18T08:04:05;99040.53;;;11.92;66.55
77171;BME280;66144;50.020;14.422;2023-02-18T08:06:34;99038.25;;;12.01;66.36
77171;BME280;66144;50.020;14.422;2023-02-18T08:09:00;99040.91;;;12.06;66.42
77171;BME280;66144;50.020;14.422;2023-02-18T08:11:25;99038.84;;;12.08;66.48
77171;BME280;66144;50.020;14.422;2023-02-18T08:13:50;99040.19;;;12.16;66.72
77171;BME280;66144;50.020;14.422;2023-02-18T08:16:17;99036.00;;;12.15;66.36
77171;BME280;66144;50.020;14.422;2023-02-18T08:18:43;99032.19;;;12.27;66.14
77171;BME280;66144;50.020;14.422;2023-02-18T08:21:09;99019.66;;;12.34;65.74
77171;BME280;66144;50.020;14.422;2023-02-18T08:23:35;99021.56;;;12.44;65.18
77171;BME280;66144;50.020;14.422;2023-02-18T08:26:00;99022.09;;;12.46;65.44
77171;BME280;66144;50.020;14.422;2023-02-18T08:28:26;99014.59;;;12.60;65.00
77171;BME280;66144;50.020;14.422;2023-02-18T08:30:53;99017.53;;;12.68;65.05
77171;BME280;66144;50.020;14.422;2023-02-18T08:33:20;99006.31;;;12.78;64.71
77171;BME280;66144;50.020;14.422;2023-02-18T08:35:46;99000.06;;;12.84;64.54
77171;BME280;66144;50.020;14.422;2023-02-18T08:38:12;99006.59;;;12.82;64.91
77171;BME280;66144;50.020;14.422;2023-02-18T08:40:37;98998.44;;;12.78;64.53
77171;BME280;66144;50.020;14.422;2023-02-18T08:43:03;98991.88;;;12.75;64.68
77171;BME280;66144;50.020;14.422;2023-02-18T08:45:28;98992.69;;;12.81;65.45
77171;BME280;66144;50.020;14.422;2023-02-18T08:47:53;98994.25;;;12.77;65.17
77171;BME280;66144;50.020;14.422;2023-02-18T08:50:19;98993.97;;;12.73;65.16
77171;BME280;66144;50.020;14.422;2023-02-18T08:52:46;99000.03;;;12.79;65.44
77171;BME280;66144;50.020;14.422;2023-02-18T08:55:12;98986.38;;;12.77;65.86
77171;BME280;66144;50.020;14.422;2023-02-18T08:57:37;98986.97;;;12.84;65.34
77171;BME280;66144;50.020;14.422;2023-02-18T09:00:03;98973.59;;;12.91;64.89
77171;BME280;66144;50.020;14.422;2023-02-18T09:02:30;98978.09;;;13.00;65.08
77171;BME280;66144;50.020;14.422;2023-02-18T09:04:55;98964.75;;;13.02;64.63
77171;BME280;66144;50.020;14.422;2023-02-18T09:07:21;98967.66;;;13.10;64.92
77171;BME280;66144;50.020;14.422;2023-02-18T09:09:46;98965.03;;;13.05;64.48
77171;BME280;66144;50.020;14.422;2023-02-18T09:12:11;98976.59;;;13.14;64.65
77171;BME280;66144;50.020;14.422;2023-02-18T09:14:37;98967.66;;;13.05;64.83
77171;BME280;66144;50.020;14.422;2023-02-18T09:17:02;98960.25;;;12.97;64.81
77171;BME280;66144;50.020;14.422;2023-02-18T09:19:27;98955.06;;;13.07;64.85
77171;BME280;66144;50.020;14.422;2023-02-18T09:21:53;98956.38;;;13.10;64.86
77171;BME280;66144;50.020;14.422;2023-02-18T09:24:19;98954.63;;;13.21;64.63
77171;BME280;66144;50.020;14.422;2023-02-18T09:26:44;98957.75;;;13.28;64.28
77171;BME280;66144;50.020;14.422;2023-02-18T09:29:10;98959.09;;;13.35;64.09
77171;BME280;66144;50.020;14.422;2023-02-18T09:31:35;98942.56;;;13.35;64.11
77171;BME280;66144;50.020;14.422;2023-02-18T09:34:04;98945.22;;;13.45;64.60
77171;BME280;66144;50.020;14.422;2023-02-18T09:36:30;98947.59;;;13.41;64.41
77171;BME280;66144;50.020;14.422;2023-02-18T09:38:56;98944.69;;;13.48;64.32
77171;BME280;66144;50.020;14.422;2023-02-18T09:41:40;98936.03;;;13.53;64.21
77171;BME280;66144;50.020;14.422;2023-02-18T09:46:59;98931.59;;;13.58;63.90
77171;BME280;66144;50.020;14.422;2023-02-18T09:49:30;98932.13;;;13.65;63.71
77171;BME280;66144;50.020;14.422;2023-02-18T09:52:19;98930.03;;;13.62;63.81
77171;BME280;66144;50.020;14.422;2023-02-18T09:54:48;98935.03;;;13.64;64.15
77171;BME280;66144;50.020;14.422;2023-02-18T09:57:41;98927.41;;;13.62;64.06
77171;BME280;66144;50.020;14.422;2023-02-18T10:00:21;98917.69;;;13.63;64.69
77171;BME280;66144;50.020;14.422;2023-02-18T10:03:12;98920.84;;;13.60;64.44
77171;BME280;66144;50.020;14.422;2023-02-18T10:05:50;98915.31;;;13.41;64.88
77171;BME280;66144;50.020;14.422;2023-02-18T10:08:22;98907.44;;;13.41;64.89
77171;BME280;66144;50.020;14.422;2023-02-18T10:10:49;98914.78;;;13.49;65.22
77171;BME280;66144;50.020;14.422;2023-02-18T10:13:19;98904.81;;;13.36;65.49
77171;BME280;66144;50.020;14.422;2023-02-18T10:15:47;98897.47;;;13.38;65.59
77171;BME280;66144;50.020;14.422;2023-02-18T10:20:44;98888.03;;;13.42;65.15
77171;BME280;66144;50.020;14.422;2023-02-18T10:23:11;98868.63;;;13.43;65.58
77171;BME280;66144;50.020;14.422;2023-02-18T10:25:42;98872.25;;;13.47;65.18
77171;BME280;66144;50.020;14.422;2023-02-18T10:28:09;98867.00;;;13.47;65.34
77171;BME280;66144;50.020;14.422;2023-02-18T10:30:40;98857.31;;;13.53;65.54
77171;BME280;66144;50.020;14.422;2023-02-18T10:38:59;98857.06;;;13.54;66.20
77171;BME280;66144;50.020;14.422;2023-02-18T10:44:32;98841.84;;;13.61;65.07
77171;BME280;66144;50.020;14.422;2023-02-18T10:47:52;98817.16;;;13.67;65.01
77171;BME280;66144;50.020;14.422;2023-02-18T10:50:27;98823.97;;;13.73;64.50
77171;BME280;66144;50.020;14.422;2023-02-18T10:52:56;98823.41;;;13.87;64.17
77171;BME280;66144;50.020;14.422;2023-02-18T10:55:39;98817.91;;;13.93;63.70
77171;BME280;66144;50.020;14.422;2023-02-18T10:58:25;98799.72;;;14.07;63.35
77171;BME280;66144;50.020;14.422;2023-02-18T11:00:52;98801.31;;;14.13;62.51
77171;BME280;66144;50.020;14.422;2023-02-18T11:03:20;98806.53;;;14.23;62.43
77171;BME280;66144;50.020;14.422;2023-02-18T11:05:49;98797.06;;;14.22;62.24
77171;BME280;66144;50.020;14.422;2023-02-18T11:08:24;98780.50;;;14.27;61.89
77171;BME280;66144;50.020;14.422;2023-02-18T11:10:50;98791.78;;;14.32;61.63
77171;BME280;66144;50.020;14.422;2023-02-18T11:13:24;98769.97;;;14.27;61.88
77171;BME280;66144;50.020;14.422;2023-02-18T11:16:00;98780.72;;;14.35;61.18
77171;BME280;66144;50.020;14.422;2023-02-18T11:21:29;98782.81;;;14.38;60.79
77171;BME280;66144;50.020;14.422;2023-02-18T11:23:55;98770.47;;;14.34;60.32
77171;BME280;66144;50.020;14.422;2023-02-18T11:26:32;98754.38;;;14.56;60.07
77171;BME280;66144;50.020;14.422;2023-02-18T11:29:07;98763.22;;;14.70;59.31
77171;BME280;66144;50.020;14.422;2023-02-18T11:31:39;98747.53;;;14.60;58.77
77171;BME280;66144;50.020;14.422;2023-02-18T11:34:29;98739.66;;;14.55;58.64
77171;BME280;66144;50.020;14.422;2023-02-18T11:37:07;98739.59;;;14.65;58.25
77171;BME280;66144;50.020;14.422;2023-02-18T11:39:33;98740.56;;;14.79;57.74
77171;BME280;66144;50.020;14.422;2023-02-18T11:42:04;98717.09;;;14.82;57.62
77171;BME280;66144;50.020;14.422;2023-02-18T11:44:39;98720.19;;;14.95;55.97
77171;BME280;66144;50.020;14.422;2023-02-18T11:47:20;98733.69;;;14.83;56.61
77171;BME280;66144;50.020;14.422;2023-02-18T11:50:14;98720.53;;;14.83;57.05
77171;BME280;66144;50.020;14.422;2023-02-18T11:52:42;98731.22;;;14.58;56.75
77171;BME280;66144;50.020;14.422;2023-02-18T11:55:21;98735.13;;;14.65;56.75
77171;BME280;66144;50.020;14.422;2023-02-18T11:58:02;98710.75;;;14.55;57.56
77171;BME280;66144;50.020;14.422;2023-02-18T12:00:46;98714.41;;;14.59;57.31
77171;BME280;66144;50.020;14.422;2023-02-18T12:03:38;98678.41;;;14.54;56.39
77171;BME280;66144;50.020;14.422;2023-02-18T12:06:21;98696.84;;;14.83;55.98
77171;BME280;66144;50.020;14.422;2023-02-18T12:09:02;98698.91;;;14.91;55.93
77171;BME280;66144;50.020;14.422;2023-02-18T12:11:36;98679.47;;;14.87;55.28
77171;BME280;66144;50.020;14.422;2023-02-18T12:14:08;98682.38;;;14.85;55.25
77171;BME280;66144;50.020;14.422;2023-02-18T12:19:42;98648.81;;;14.77;55.24
77171;BME280;66144;50.020;14.422;2023-02-18T12:36:19;98640.47;;;14.65;52.28
77171;BME280;66144;50.020;14.422;2023-02-18T12:38:59;98647.84;;;14.63;52.62
77171;BME280;66144;50.020;14.422;2023-02-18T12:52:47;98639.97;;;15.45;49.22
77171;BME280;66144;50.020;14.422;2023-02-18T12:58:22;98645.44;;;15.77;48.87
77171;BME280;66144;50.020;14.422;2023-02-18T13:06:02;98632.06;;;15.21;49.70
77171;BME280;66144;50.020;14.422;2023-02-18T13:14:24;98627.63;;;14.93;51.41
77171;BME280;66144;50.020;14.422;2023-02-18T13:16:54;98635.84;;;14.86;50.78
77171;BME280;66144;50.020;14.422;2023-02-18T13:19:35;98622.56;;;14.72;51.20
77171;BME280;66144;50.020;14.422;2023-02-18T13:22:05;98628.00;;;14.81;51.59
77171;BME280;66144;50.020;14.422;2023-02-18T13:24:39;98618.59;;;14.75;51.74
77171;BME280;66144;50.020;14.422;2023-02-18T13:29:43;98608.38;;;14.68;52.35
77171;BME280;66144;50.020;14.422;2023-02-18T13:32:30;98611.94;;;14.54;52.50
77171;BME280;66144;50.020;14.422;2023-02-18T13:35:20;98627.13;;;14.62;51.95
77171;BME280;66144;50.020;14.422;2023-02-18T13:40:25;98624.13;;;14.73;51.61
77171;BME280;66144;50.020;14.422;2023-02-18T13:42:54;98605.50;;;14.65;52.04
77171;BME280;66144;50.020;14.422;2023-02-18T13:45:39;98611.78;;;14.69;51.45
77171;BME280;66144;50.020;14.422;2023-02-18T13:48:25;98591.50;;;14.74;51.19
77171;BME280;66144;50.020;14.422;2023-02-18T13:50:51;98599.13;;;14.76;51.55
77171;BME280;66144;50.020;14.422;2023-02-18T13:53:23;98604.97;;;14.68;51.78
77171;BME280;66144;50.020;14.422;2023-02-18T13:56:08;98615.75;;;14.66;51.98
77171;BME280;66144;50.020;14.422;2023-02-18T13:58:43;98606.63;;;14.59;51.74
77171;BME280;66144;50.020;14.422;2023-02-18T14:01:35;98592.22;;;14.51;51.42
77171;BME280;66144;50.020;14.422;2023-02-18T14:04:02;98589.63;;;14.46;50.36
77171;BME280;66144;50.020;14.422;2023-02-18T14:09:35;98600.28;;;14.26;49.29
77171;BME280;66144;50.020;14.422;2023-02-18T14:14:46;98602.16;;;14.20;49.19
77171;BME280;66144;50.020;14.422;2023-02-18T14:22:47;98596.94;;;14.15;49.23
77171;BME280;66144;50.020;14.422;2023-02-18T14:27:54;98595.47;;;13.99;49.90
77171;BME280;66144;50.020;14.422;2023-02-18T14:30:32;98612.81;;;14.00;50.31
77171;BME280;66144;50.020;14.422;2023-02-18T14:33:01;98598.63;;;13.96;50.14
77171;BME280;66144;50.020;14.422;2023-02-18T14:38:36;98597.63;;;13.87;50.35
77171;BME280;66144;50.020;14.422;2023-02-18T14:43:43;98591.06;;;13.89;50.58
77171;BME280;66144;50.020;14.422;2023-02-18T14:46:24;98592.38;;;13.87;50.72
77171;BME280;66144;50.020;14.422;2023-02-18T14:51:27;98596.38;;;13.79;50.77
77171;BME280;66144;50.020;14.422;2023-02-18T14:53:53;98591.63;;;13.81;51.17
77171;BME280;66144;50.020;14.422;2023-02-18T14:56:20;98591.91;;;13.79;50.98
77171;BME280;66144;50.020;14.422;2023-02-18T14:58:52;98603.72;;;13.82;51.38
77171;BME280;66144;50.020;14.422;2023-02-18T15:01:30;98600.59;;;13.75;51.12
77171;BME280;66144;50.020;14.422;2023-02-18T15:03:56;98585.91;;;13.69;51.50
77171;BME280;66144;50.020;14.422;2023-02-18T15:08:52;98605.34;;;13.68;51.45
77171;BME280;66144;50.020;14.422;2023-02-18T15:11:19;98609.31;;;13.65;51.28